Flight Track Log - Related Links

Times and Time Zones

All times are in EDT time to prevent confusion due to time zone crossing. See the CSN3459 flight status page for this flight to view local times or setup timezone preferences in your user account.

Time Position Orientation Groundspeed Altitude Reporting Facility
EDT Latitude Longitude Course Direction KTS MPH feet Rate Location/Type
08:25PM 22.6684 113.7035 286° West  Level Estimated
08:26PM 22.6972 113.5945 286° West  Level Estimated
08:27PM 22.7260 113.4855 286° West  Level Estimated
08:28PM 22.7547 113.3764 286° West  Level Estimated
08:29PM 22.7830 113.2684 286° West  Level Estimated
08:30PM 22.8112 113.1604 286° West  Level Estimated
08:31PM 22.8394 113.0523 286° West  Level Estimated
08:32PM 22.8675 112.9441 286° West  Level Estimated
08:33PM 22.8955 112.8359 286° West  Level Estimated
08:34PM 22.9235 112.7277 286° West  Level Estimated
08:35PM 22.9514 112.6194 286° West  Level Estimated
08:36PM 22.9792 112.5111 286° West  Level Estimated
08:36PM 22.1357 113.0627 211° Southwest 405 466 13,800  Level FlightAware ADS-B
08:37PM 23.0069 112.4027 286° West  Level Estimated
08:37PM 22.0759 113.0244 211° Southwest 404 465 13,800  Level FlightAware ADS-B
08:37PM 22.0522 113.0063 224° Southwest 404 465 13,900 2,941 Climbing FlightAware ADS-B
08:38PM 22.0180 112.9489 247° West 383 441 16,300 2,618 Climbing FlightAware ADS-B
08:39PM 21.9698 112.8254 247° West 383 441 18,700 2,317 Climbing FlightAware ADS-B
08:39PM 21.9457 112.7646 247° West 378 435 20,200 2,203 Climbing FlightAware ADS-B
08:40PM 21.9168 112.6927 247° West 372 428 21,600 1,636 Climbing FlightAware ADS-B
08:41PM 21.8850 112.6135 247° West 376 433 22,600 1,481 Climbing FlightAware ADS-B
08:41PM 21.8593 112.5417 253° West 382 440 23,600 1,481 Climbing FlightAware ADS-B
08:42PM 21.8389 112.4701 253° West 385 443 24,600 1,443 Climbing FlightAware ADS-B
08:43PM 21.8174 112.3965 253° West 389 448 25,500 1,200 Climbing FlightAware ADS-B
08:43PM 21.7959 112.3241 252° West 399 459 26,200 1,125 Climbing FlightAware ADS-B
08:44PM 21.7714 112.2448 252° West 404 465 27,000 1,037 Climbing FlightAware ADS-B
08:45PM 21.7480 112.1681 252° West 410 472 27,600 468 Climbing FlightAware ADS-B
08:45PM 21.7255 112.0940 252° West 430 495 27,600  Level FlightAware ADS-B
08:48PM 21.8069 111.8934 294° West  Level Estimated
08:49PM 21.8460 111.7970 294° West  Level Estimated
08:50PM 21.8849 111.7005 294° West  Level Estimated
08:51PM 21.9238 111.6040 294° West  Level Estimated
08:52PM 21.9627 111.5075 293° West  Level Estimated
08:53PM 22.0015 111.4109 293° West  Level Estimated
08:54PM 22.0402 111.3142 293° West  Level Estimated
08:55PM 22.0789 111.2175 293° West  Level Estimated
08:56PM 22.1176 111.1207 293° West  Level Estimated
08:57PM 22.1561 111.0239 293° West  Level Estimated
08:58PM 22.1946 110.9270 293° West  Level Estimated
08:59PM 22.2331 110.8301 293° West  Level Estimated
09:00PM 22.2715 110.7331 293° West  Level Estimated
09:01PM 22.3098 110.6361 293° West  Level Estimated
09:02PM 22.3481 110.5390 293° West  Level Estimated
09:03PM 22.3864 110.4419 293° West  Level Estimated
09:04PM 22.4245 110.3447 293° West  Level Estimated
09:05PM 22.4626 110.2475 293° West  Level Estimated
09:06PM 22.5007 110.1501 293° West  Level Estimated
09:07PM 22.5387 110.0528 293° West  Level Estimated
09:08PM 22.5766 109.9554 293° West  Level Estimated
09:09PM 22.6145 109.8579 293° West  Level Estimated
09:10PM 22.6523 109.7604 293° West  Level Estimated
09:11PM 22.6901 109.6629 293° West  Level Estimated
09:12PM 22.7278 109.5652 293° West  Level Estimated
09:13PM 22.7654 109.4676 293° West  Level Estimated
09:14PM 22.8030 109.3699 293° West  Level Estimated
09:15PM 22.8405 109.2721 293° West  Level Estimated
09:16PM 22.8780 109.1742 293° West  Level Estimated
09:17PM 22.9154 109.0763 293° West  Level Estimated
09:18PM 22.9527 108.9784 293° West  Level Estimated
09:19PM 22.9900 108.8804 292° West  Level Estimated
09:20PM 23.0272 108.7824 292° West  Level Estimated
09:21PM 23.0644 108.6842 292° West  Level Estimated
09:22PM 23.1015 108.5861 292° West  Level Estimated
09:23PM 23.1385 108.4879 292° West  Level Estimated
09:24PM 23.1755 108.3896 292° West  Level Estimated
09:25PM 23.2124 108.2913 292° West  Level Estimated
09:26PM 23.2493 108.1929 292° West  Level Estimated
09:27PM 23.2861 108.0945 292° West  Level Estimated
09:28PM 23.3228 107.9960 292° West  Level Estimated
09:29PM 23.3594 107.8975 292° West  Level Estimated
09:30PM 23.3961 107.7989 292° West  Level Estimated
09:31PM 23.4326 107.7002 292° West  Level Estimated
09:32PM 23.4691 107.6015 292° West  Level Estimated
09:33PM 23.5055 107.5028 292° West  Level Estimated
09:34PM 23.5419 107.4040 292° West  Level Estimated
09:35PM 23.5782 107.3051 292° West  Level Estimated
09:36PM 23.6144 107.2062 292° West  Level Estimated
09:37PM 23.6506 107.1072 292° West  Level Estimated
09:38PM 23.6867 107.0082 292° West  Level Estimated
09:39PM 23.7227 106.9091 292° West  Level Estimated
09:40PM 23.7587 106.8100 292° West  Level Estimated
09:41PM 23.7947 106.7107 292° West  Level Estimated
09:42PM 23.8305 106.6115 292° West  Level Estimated
09:43PM 23.8663 106.5122 292° West  Level Estimated
09:44PM 23.9020 106.4128 291° West  Level Estimated
09:45PM 23.9377 106.3134 291° West  Level Estimated
09:46PM 23.9733 106.2140 291° West  Level Estimated
09:47PM 24.0089 106.1144 291° West  Level Estimated
09:48PM 24.0443 106.0149 291° West  Level Estimated
09:49PM 24.0797 105.9152 291° West  Level Estimated
09:50PM 24.1151 105.8155 291° West  Level Estimated
09:51PM 24.1504 105.7158 291° West  Level Estimated
09:52PM 24.1856 105.6160 291° West  Level Estimated
09:53PM 24.2207 105.5161 291° West  Level Estimated
09:54PM 24.2558 105.4162 291° West  Level Estimated
09:55PM 24.2908 105.3163 291° West  Level Estimated
09:56PM 24.3258 105.2162 291° West  Level Estimated
09:57PM 24.3607 105.1162 291° West  Level Estimated
09:58PM 24.3955 105.0161 291° West  Level Estimated
09:59PM 24.4303 104.9159 291° West  Level Estimated
10:00PM 24.4650 104.8156 291° West  Level Estimated
10:01PM 24.4996 104.7153 291° West  Level Estimated
10:02PM 24.5341 104.6150 291° West  Level Estimated
10:03PM 24.5686 104.5146 291° West  Level Estimated
10:04PM 24.6031 104.4141 291° West  Level Estimated
10:05PM 24.6374 104.3136 291° West  Level Estimated
10:06PM 24.6717 104.2130 291° West  Level Estimated
10:07PM 24.7059 104.1124 291° West  Level Estimated
10:08PM 24.7401 104.0117 291° West  Level Estimated
10:09PM 24.7742 103.9110 290° West  Level Estimated
10:10PM 24.8082 103.8102 290° West  Level Estimated
10:11PM 24.8422 103.7094 290° West  Level Estimated
10:12PM 24.8761 103.6085 290° West  Level Estimated
10:13PM 24.9099 103.5075 290° West  Level Estimated
10:14PM 24.9436 103.4065 290° West  Level Estimated
10:15PM 24.9773 103.3054 290° West  Level Estimated
10:16PM 25.0109 103.2043 290° West  Level Estimated
10:17PM 25.0445 103.1031 290° West  Level Estimated
10:18PM 25.0779 103.0019 290° West  Level Estimated
10:19PM 25.1019 102.9292 290° West  Level Estimated

Login

Don't have an account? Register now (free) for customized features, flight alerts, and more!